Time;durP1;ratioP1;P1;durP2;ratioP2;P2;SDS_P1;SDS_P2;PMS_P1;PMS_P2;Temp;Humidity;BMP_temperature;BMP_pressure;BME280_temperature;BME280_humidity;BME280_pressure;Samples;Min_cycle;Max_cycle;Signal;HPM_P1;HPM_P2
2022/05/20 00:00:45;;;;;;;4.72;3.28;;;18.00;98.90;;;;;;4997155;28;20030;-74
2022/05/20 00:03:11;;;;;;;6.00;3.70;;;18.00;99.10;;;;;;4993433;28;20035;-75
2022/05/20 00:05:37;;;;;;;5.72;3.78;;;17.80;99.30;;;;;;4994624;28;20037;-74
2022/05/20 00:08:04;;;;;;;7.53;4.30;;;17.90;99.30;;;;;;4993895;28;20101;-74
2022/05/20 00:10:30;;;;;;;6.82;3.70;;;18.00;99.20;;;;;;5007902;28;20034;-74
2022/05/20 00:12:57;;;;;;;9.85;3.63;;;18.10;99.00;;;;;;4999471;28;20039;-74
2022/05/20 00:15:25;;;;;;;8.13;4.10;;;18.10;98.90;;;;;;4992739;28;20469;-74
2022/05/20 00:17:51;;;;;;;8.07;3.80;;;18.10;98.90;;;;;;4994700;28;20030;-74
2022/05/20 00:20:18;;;;;;;10.75;4.43;;;17.90;99.30;;;;;;5005876;28;20120;-74
2022/05/20 00:22:45;;;;;;;7.72;4.35;;;17.90;99.40;;;;;;5002129;28;20532;-74
2022/05/20 00:27:57;;;;;;;8.57;3.92;;;17.90;99.30;;;;;;4998664;28;20538;-74
2022/05/20 00:30:23;;;;;;;5.40;3.85;;;18.00;99.30;;;;;;5009444;28;20038;-74
2022/05/20 00:32:49;;;;;;;7.13;3.78;;;17.90;99.20;;;;;;4993721;28;20022;-74
2022/05/20 00:35:15;;;;;;;7.40;3.92;;;17.90;99.30;;;;;;4994219;28;20033;-74
2022/05/20 00:37:41;;;;;;;11.35;4.55;;;17.90;99.50;;;;;;4993682;28;20030;-74
2022/05/20 00:40:10;;;;;;;10.07;3.92;;;18.10;99.20;;;;;;5003651;28;20387;-74
2022/05/20 00:42:35;;;;;;;10.05;4.45;;;18.20;99.10;;;;;;5012918;28;20046;-75
2022/05/20 00:45:02;;;;;;;8.55;4.85;;;18.30;98.90;;;;;;5003876;28;20036;-74
2022/05/20 00:47:28;;;;;;;8.65;4.20;;;18.40;98.60;;;;;;4993246;28;20480;-74
2022/05/20 00:49:56;;;;;;;6.53;4.20;;;18.40;98.50;;;;;;5001063;28;20060;-75
2022/05/20 00:52:26;;;;;;;10.32;4.53;;;18.30;98.70;;;;;;5012964;28;20079;-75
2022/05/20 00:54:59;;;;;;;8.55;5.47;;;18.30;98.70;;;;;;5011217;28;20040;-75
2022/05/20 00:57:30;;;;;;;7.93;4.93;;;18.20;98.80;;;;;;5013108;28;20034;-75
2022/05/20 01:00:17;;;;;;;6.38;3.90;;;18.00;99.20;;;;;;5005770;28;20879;-75
2022/05/20 01:02:43;;;;;;;7.07;4.30;;;17.90;99.50;;;;;;4997009;28;20505;-74
2022/05/20 01:05:26;;;;;;;10.93;5.07;;;18.00;99.30;;;;;;5005483;28;20050;-75
2022/05/20 01:07:53;;;;;;;7.00;4.13;;;18.00;99.30;;;;;;5014191;28;20607;-74
2022/05/20 01:10:19;;;;;;;7.65;4.28;;;17.80;99.70;;;;;;5007466;28;20044;-74
2022/05/20 01:12:46;;;;;;;7.60;4.20;;;17.80;99.70;;;;;;5015482;28;20053;-74
2022/05/20 01:15:12;;;;;;;8.38;4.55;;;17.60;99.90;;;;;;5016152;28;20472;-74
2022/05/20 01:17:39;;;;;;;7.82;4.50;;;17.40;99.90;;;;;;5016711;28;20373;-74
2022/05/20 01:20:11;;;;;;;10.77;4.63;;;17.40;99.90;;;;;;5005091;28;20439;-74
2022/05/20 01:22:39;;;;;;;9.80;4.53;;;17.30;99.90;;;;;;5016272;28;20484;-74
2022/05/20 01:25:07;;;;;;;6.93;3.72;;;17.40;99.90;;;;;;4997519;28;20397;-74
2022/05/20 01:27:36;;;;;;;7.63;4.57;;;17.20;99.90;;;;;;4996690;28;20030;-74
2022/05/20 01:30:05;;;;;;;10.18;4.38;;;17.00;99.90;;;;;;5005650;28;20037;-75
2022/05/20 01:32:30;;;;;;;7.32;4.13;;;16.90;99.90;;;;;;4996599;28;20077;-74
2022/05/20 01:34:56;;;;;;;10.10;4.35;;;17.00;99.90;;;;;;4997358;28;20448;-74
2022/05/20 01:37:22;;;;;;;8.43;4.60;;;17.00;99.90;;;;;;4996663;28;20030;-74
2022/05/20 01:39:48;;;;;;;7.25;4.13;;;17.00;99.90;;;;;;5002671;28;20498;-74
2022/05/20 01:42:43;;;;;;;8.07;3.78;;;17.00;99.90;;;;;;5015894;28;20026;-74
2022/05/20 01:45:15;;;;;;;7.82;3.83;;;16.80;99.90;;;;;;4997322;28;20074;-74
2022/05/20 01:47:49;;;;;;;7.53;3.45;;;16.90;99.90;;;;;;4996786;28;20026;-74
2022/05/20 01:50:28;;;;;;;;;;;17.00;99.90;;;;;;4996998;28;20106;-74
2022/05/20 01:53:13;;;;;;;8.55;4.03;;;16.90;99.90;;;;;;4997212;28;20369;-74
2022/05/20 01:56:09;;;;;;;9.98;4.15;;;16.70;99.90;;;;;;4996152;28;20026;-74
2022/05/20 01:58:43;;;;;;;16.50;3.35;;;16.70;99.90;;;;;;5003014;28;20469;-74
2022/05/20 02:01:12;;;;;;;;;;;16.80;99.90;;;;;;5014362;28;20104;-74
2022/05/20 02:03:50;;;;;;;7.53;3.80;;;16.70;99.90;;;;;;5007831;28;19918;-74
2022/05/20 02:06:30;;;;;;;8.05;3.70;;;16.70;99.90;;;;;;5005438;28;20101;-74
2022/05/20 02:09:02;;;;;;;10.35;4.43;;;16.80;99.90;;;;;;5006269;28;20045;-74
2022/05/20 02:11:43;;;;;;;7.38;3.83;;;16.90;99.90;;;;;;4995978;28;20034;-74
2022/05/20 02:14:18;;;;;;;7.45;4.15;;;17.00;99.90;;;;;;4996996;28;20493;-74
2022/05/20 02:17:06;;;;;;;7.05;3.83;;;17.00;99.90;;;;;;4996128;28;20493;-74
2022/05/20 02:19:44;;;;;;;7.40;3.58;;;17.00;99.90;;;;;;5008584;28;20097;-74
2022/05/20 02:22:18;;;;;;;7.32;3.53;;;17.10;99.90;;;;;;5015434;28;20041;-75
2022/05/20 02:24:46;;;;;;;;;;;17.10;99.90;;;;;;5000068;28;20546;-74
2022/05/20 02:27:17;;;;;;;6.38;3.38;;;17.10;99.90;;;;;;4995919;28;19906;-74
2022/05/20 02:29:59;;;;;;;7.32;3.95;;;16.80;99.90;;;;;;5010422;28;20116;-74
2022/05/20 02:32:37;;;;;;;11.23;4.15;;;16.70;99.90;;;;;;5015182;28;20097;-74
2022/05/20 02:35:04;;;;;;;8.85;3.25;;;17.00;99.90;;;;;;5011484;28;20049;-74
2022/05/20 02:37:33;;;;;;;7.15;3.58;;;16.80;99.90;;;;;;4995649;28;20041;-75
2022/05/20 02:40:01;;;;;;;5.72;3.25;;;16.60;99.90;;;;;;4995430;28;20034;-74
2022/05/20 02:42:28;;;;;;;9.43;4.55;;;16.50;99.90;;;;;;4995095;28;20061;-74
2022/05/20 02:44:55;;;;;;;6.45;2.80;;;16.50;99.90;;;;;;4996333;28;20034;-74
2022/05/20 02:47:21;;;;;;;5.80;3.35;;;16.40;99.90;;;;;;4995783;28;20027;-74
2022/05/20 02:49:47;;;;;;;7.68;3.33;;;16.30;99.90;;;;;;4996533;28;20077;-74
2022/05/20 02:52:13;;;;;;;8.30;3.88;;;16.30;99.90;;;;;;4995756;28;20030;-74
2022/05/20 02:54:39;;;;;;;8.57;4.45;;;16.40;99.90;;;;;;4996204;28;20472;-74
2022/05/20 02:57:05;;;;;;;6.40;3.20;;;16.50;99.90;;;;;;4995287;28;20026;-74
2022/05/20 03:04:59;;;;;;;8.93;3.65;;;16.30;99.90;;;;;;4991615;28;20056;-74
2022/05/20 03:07:25;;;;;;;9.05;3.70;;;16.50;99.90;;;;;;4989273;28;20109;-74
2022/05/20 03:09:53;;;;;;;7.68;3.92;;;16.50;99.90;;;;;;4990697;28;20444;-75
2022/05/20 03:12:19;;;;;;;6.60;3.15;;;16.40;99.90;;;;;;4995559;28;20400;-74
2022/05/20 03:14:45;;;;;;;7.20;3.78;;;16.30;99.90;;;;;;4999767;28;20030;-74
2022/05/20 03:17:11;;;;;;;5.65;3.47;;;16.30;99.90;;;;;;5004119;28;20085;-74
2022/05/20 03:19:37;;;;;;;6.35;3.40;;;16.30;99.90;;;;;;4994413;28;20433;-74
2022/05/20 03:22:05;;;;;;;6.03;3.17;;;16.30;99.90;;;;;;4986303;28;20033;-74
2022/05/20 03:24:31;;;;;;;7.07;3.33;;;16.40;99.90;;;;;;5005731;28;20026;-74
2022/05/20 03:26:57;;;;;;;5.78;3.42;;;16.30;99.90;;;;;;5009271;28;20026;-74
2022/05/20 03:29:23;;;;;;;6.85;3.42;;;16.30;99.90;;;;;;5007254;28;21142;-74
2022/05/20 03:31:49;;;;;;;5.97;3.60;;;16.30;99.90;;;;;;5007262;28;20084;-74
2022/05/20 03:34:17;;;;;;;8.20;3.25;;;16.30;99.90;;;;;;4994150;28;20042;-75
2022/05/20 03:36:45;;;;;;;7.80;3.70;;;16.30;99.90;;;;;;4989896;28;20045;-74
2022/05/20 03:39:14;;;;;;;9.38;3.53;;;16.30;99.90;;;;;;4990186;28;20034;-74
2022/05/20 03:41:40;;;;;;;6.43;3.63;;;16.40;99.90;;;;;;4999887;28;20030;-74
2022/05/20 03:44:08;;;;;;;8.75;3.70;;;16.40;99.90;;;;;;5001285;28;20738;-74
2022/05/20 03:46:46;;;;;;;7.63;3.60;;;16.40;99.90;;;;;;5005692;28;20029;-74
2022/05/20 03:49:13;;;;;;;5.50;3.58;;;16.40;99.90;;;;;;5003431;28;20033;-74
2022/05/20 03:51:40;;;;;;;7.75;3.63;;;16.40;99.90;;;;;;5005434;28;20041;-74
2022/05/20 03:54:06;;;;;;;7.22;4.07;;;16.40;99.90;;;;;;4992257;28;20038;-74
2022/05/20 03:56:32;;;;;;;5.53;3.20;;;16.40;99.90;;;;;;4987774;28;20065;-74
2022/05/20 03:58:58;;;;;;;6.13;4.13;;;16.40;99.90;;;;;;4990954;28;20066;-74
2022/05/20 04:04:08;;;;;;;7.05;3.70;;;16.30;99.90;;;;;;4989899;28;20201;-74
2022/05/20 04:06:34;;;;;;;7.60;4.13;;;16.30;99.90;;;;;;4988728;28;20517;-74
2022/05/20 04:08:59;;;;;;;6.10;3.72;;;16.40;99.90;;;;;;5004340;28;20407;-74
2022/05/20 04:11:27;;;;;;;7.72;3.85;;;16.40;99.90;;;;;;5007936;28;20030;-74
2022/05/20 04:13:53;;;;;;;10.18;4.05;;;16.40;99.90;;;;;;4993048;28;20030;-73
2022/05/20 04:16:19;;;;;;;12.60;4.22;;;16.40;99.90;;;;;;4988234;28;20034;-74
2022/05/20 04:18:45;;;;;;;5.35;3.13;;;16.40;99.90;;;;;;4989180;28;20048;-73
2022/05/20 04:21:13;;;;;;;9.20;3.72;;;16.50;99.90;;;;;;4987207;28;20081;-74
2022/05/20 04:23:39;;;;;;;6.57;3.63;;;16.50;99.90;;;;;;5000305;28;20057;-74
2022/05/20 04:26:04;;;;;;;10.27;3.83;;;16.50;99.90;;;;;;5008014;28;20030;-74
2022/05/20 04:28:30;;;;;;;7.45;3.47;;;16.50;99.90;;;;;;4997106;28;20365;-74
2022/05/20 04:31:00;;;;;;;7.22;3.20;;;16.50;99.90;;;;;;4988264;28;20401;-74
2022/05/20 04:33:26;;;;;;;5.15;3.03;;;16.50;99.90;;;;;;4997914;28;20033;-74
2022/05/20 04:35:52;;;;;;;10.38;3.35;;;16.50;99.90;;;;;;5007230;28;20036;-74
2022/05/20 04:38:18;;;;;;;6.93;3.72;;;16.50;99.90;;;;;;5006071;28;20177;-74
2022/05/20 04:40:44;;;;;;;5.80;3.60;;;16.50;99.90;;;;;;5007814;28;20104;-74
2022/05/20 04:48:38;;;;;;;6.60;3.70;;;16.60;99.90;;;;;;4998909;28;20244;-74
2022/05/20 04:51:04;;;;;;;7.97;3.70;;;16.70;99.90;;;;;;5007448;28;20052;-75
2022/05/20 04:56:14;;;;;;;7.28;3.85;;;16.20;99.90;;;;;;4988153;28;20522;-74
2022/05/20 04:58:39;;;;;;;6.88;3.63;;;16.30;99.90;;;;;;4989072;28;20125;-74
2022/05/20 05:01:05;;;;;;;6.03;4.05;;;16.30;99.90;;;;;;4995993;28;20034;-74
2022/05/20 05:03:31;;;;;;;12.82;4.70;;;16.50;99.90;;;;;;4993650;28;20058;-75
2022/05/20 05:05:56;;;;;;;7.13;4.70;;;17.00;99.90;;;;;;4986320;28;20061;-74
2022/05/20 05:08:22;;;;;;;8.93;4.57;;;17.10;99.90;;;;;;4984348;28;20058;-74
2022/05/20 05:10:49;;;;;;;8.20;4.22;;;17.10;99.90;;;;;;4991608;28;20029;-74
2022/05/20 05:13:15;;;;;;;7.88;4.00;;;17.20;99.90;;;;;;4996623;28;20088;-74
2022/05/20 05:15:45;;;;;;;11.13;4.80;;;17.20;99.90;;;;;;4988517;28;20109;-74
2022/05/20 05:18:12;;;;;;;10.10;3.85;;;17.10;99.90;;;;;;4987585;28;20234;-74
2022/05/20 05:20:46;;;;;;;8.48;4.07;;;17.00;99.90;;;;;;4989610;28;20053;-74
2022/05/20 05:23:12;;;;;;;;;;;17.10;99.90;;;;;;4997476;28;20531;-74
2022/05/20 05:25:38;;;;;;;7.22;4.28;;;17.00;99.90;;;;;;4989527;28;19906;-74
2022/05/20 05:28:05;;;;;;;9.35;4.50;;;16.90;99.90;;;;;;5007511;28;20029;-74
2022/05/20 05:30:30;;;;;;;7.05;3.80;;;17.00;99.90;;;;;;5005508;28;20503;-74
2022/05/20 05:32:56;;;;;;;8.30;4.15;;;17.10;99.90;;;;;;4999671;28;20034;-74
2022/05/20 05:35:25;;;;;;;10.05;4.18;;;17.00;99.90;;;;;;4988476;28;20030;-74
2022/05/20 05:37:51;;;;;;;6.50;3.97;;;17.10;99.90;;;;;;4990506;28;20045;-74
2022/05/20 05:40:20;;;;;;;11.88;3.90;;;17.10;99.90;;;;;;5005778;28;20042;-74
2022/05/20 05:42:47;;;;;;;10.55;5.30;;;17.30;99.90;;;;;;5001910;28;20050;-75
2022/05/20 05:45:17;;;;;;;5.82;3.80;;;17.30;99.90;;;;;;5005805;28;20084;-74
2022/05/20 05:47:45;;;;;;;8.43;3.55;;;17.40;99.90;;;;;;5005822;28;20547;-74
2022/05/20 05:50:10;;;;;;;6.30;4.13;;;17.60;99.90;;;;;;5001242;28;20034;-74
2022/05/20 05:52:36;;;;;;;7.07;3.35;;;17.70;99.90;;;;;;4995342;28;20381;-74
2022/05/20 05:55:02;;;;;;;8.73;4.28;;;17.80;99.90;;;;;;4996900;28;20030;-74
2022/05/20 05:57:31;;;;;;;7.28;4.43;;;17.90;99.90;;;;;;4991410;28;20088;-74
2022/05/20 05:59:56;;;;;;;7.32;4.45;;;18.00;99.90;;;;;;4988508;28;20101;-74
2022/05/20 06:02:22;;;;;;;6.68;4.55;;;18.00;99.90;;;;;;4995784;28;20121;-74
2022/05/20 06:04:49;;;;;;;7.78;5.03;;;17.90;99.90;;;;;;4995391;28;20044;-74
2022/05/20 06:07:15;;;;;;;9.73;4.43;;;17.90;99.90;;;;;;5000146;28;20041;-74
2022/05/20 06:09:41;;;;;;;10.13;5.32;;;17.90;99.90;;;;;;4989738;28;20031;-74
2022/05/20 06:12:08;;;;;;;8.57;5.75;;;18.00;99.90;;;;;;5002240;28;20022;-74
2022/05/20 06:14:34;;;;;;;7.80;5.53;;;18.10;99.90;;;;;;5008314;28;20391;-74
2022/05/20 06:16:59;;;;;;;11.18;5.10;;;18.10;99.90;;;;;;5005642;28;20033;-74
2022/05/20 06:19:25;;;;;;;10.38;5.13;;;18.20;99.90;;;;;;4999880;28;20109;-74
2022/05/20 06:21:51;;;;;;;10.38;5.00;;;18.20;99.90;;;;;;5002931;28;20476;-74
2022/05/20 06:24:17;;;;;;;9.40;5.40;;;18.20;99.90;;;;;;4988500;28;20040;-74
2022/05/20 06:26:43;;;;;;;9.07;5.28;;;18.30;99.90;;;;;;4989084;28;20030;-74
2022/05/20 06:29:10;;;;;;;8.82;5.60;;;18.30;99.90;;;;;;4996654;28;20594;-74
2022/05/20 06:31:36;;;;;;;8.45;5.30;;;18.30;99.90;;;;;;5017468;28;20468;-73
2022/05/20 06:34:02;;;;;;;10.50;5.53;;;18.30;99.90;;;;;;4993364;28;20580;-76
2022/05/20 06:41:56;;;;;;;8.73;4.80;;;18.70;99.90;;;;;;5007513;28;20036;-74
2022/05/20 06:44:24;;;;;;;9.07;4.82;;;18.80;99.90;;;;;;4995710;28;20079;-74
2022/05/20 06:46:50;;;;;;;8.73;5.05;;;19.00;99.90;;;;;;5004925;28;20023;-75
2022/05/20 06:49:16;;;;;;;6.93;4.97;;;19.10;99.80;;;;;;5008105;28;20034;-74
2022/05/20 06:51:42;;;;;;;10.18;4.95;;;19.30;99.00;;;;;;5014375;28;20030;-75
2022/05/20 06:54:11;;;;;;;9.15;4.57;;;19.50;98.10;;;;;;5006117;28;20041;-75
2022/05/20 06:56:38;;;;;;;10.80;5.07;;;19.60;98.00;;;;;;4988998;28;20054;-75
2022/05/20 06:59:06;;;;;;;9.10;4.60;;;19.90;98.10;;;;;;5003267;28;20030;-75
2022/05/20 07:01:32;;;;;;;12.30;5.20;;;20.10;98.20;;;;;;4998707;28;20029;-75
2022/05/20 07:03:58;;;;;;;10.32;5.60;;;20.30;98.20;;;;;;4994186;28;20045;-75
2022/05/20 07:06:26;;;;;;;14.10;5.47;;;20.60;98.00;;;;;;4987619;28;20026;-74
2022/05/20 07:08:52;;;;;;;13.68;5.57;;;20.90;97.60;;;;;;4990280;28;21041;-72
2022/05/20 07:11:20;;;;;;;11.50;5.25;;;21.00;97.00;;;;;;4997497;28;20137;-74
2022/05/20 07:13:48;;;;;;;13.00;5.43;;;21.20;96.60;;;;;;4999136;28;20025;-73
2022/05/20 07:16:14;;;;;;;11.93;4.85;;;21.40;96.40;;;;;;5000111;28;20089;-74
2022/05/20 07:18:40;;;;;;;11.23;4.65;;;21.60;96.20;;;;;;4990565;28;20105;-74
2022/05/20 07:21:06;;;;;;;6.93;3.70;;;22.10;95.80;;;;;;5018031;28;20410;-74
2022/05/20 07:23:33;;;;;;;8.88;3.80;;;23.10;94.90;;;;;;5005747;28;20038;-74
2022/05/20 07:25:59;;;;;;;6.85;3.33;;;24.10;92.80;;;;;;4994090;28;20056;-73
2022/05/20 07:28:25;;;;;;;10.55;4.22;;;25.10;91.60;;;;;;4992853;28;20045;-73
2022/05/20 07:30:51;;;;;;;5.75;3.72;;;26.50;90.20;;;;;;5013036;28;20029;-73
2022/05/20 07:33:17;;;;;;;8.15;3.55;;;26.90;89.00;;;;;;4993729;28;20042;-73
2022/05/20 07:35:43;;;;;;;17.02;4.13;;;27.10;88.20;;;;;;4986973;28;20476;-73
2022/05/20 07:38:09;;;;;;;7.47;4.15;;;27.20;86.80;;;;;;4987407;28;20042;-73
2022/05/20 07:40:35;;;;;;;10.02;4.47;;;26.30;88.70;;;;;;5015353;28;20116;-73
2022/05/20 07:43:01;;;;;;;7.25;4.00;;;26.60;88.10;;;;;;5002578;28;20042;-73
2022/05/20 07:45:27;;;;;;;15.05;6.45;;;26.90;87.40;;;;;;4987618;28;20527;-73
2022/05/20 07:47:53;;;;;;;10.05;4.88;;;27.30;87.10;;;;;;4986798;28;20037;-74
2022/05/20 07:50:18;;;;;;;8.57;4.22;;;27.40;86.30;;;;;;4995778;28;20029;-74
2022/05/20 07:55:35;;;;;;;13.57;4.80;;;27.50;85.90;;;;;;5004834;28;20514;-72
2022/05/20 07:58:03;;;;;;;8.48;4.55;;;26.80;87.00;;;;;;5006214;28;20026;-73
2022/05/20 08:00:30;;;;;;;11.60;4.47;;;26.40;86.30;;;;;;4997828;28;20423;-73
2022/05/20 08:03:00;;;;;;;6.32;4.38;;;26.20;86.90;;;;;;4986535;28;20037;-74
2022/05/20 08:05:28;;;;;;;12.63;4.78;;;26.30;87.60;;;;;;4987045;28;20116;-73
2022/05/20 08:08:00;;;;;;;9.60;5.03;;;26.00;88.50;;;;;;4998254;28;20087;-73
2022/05/20 08:10:28;;;;;;;8.82;4.38;;;25.10;89.50;;;;;;5014185;28;20033;-73
2022/05/20 08:12:56;;;;;;;7.22;3.97;;;24.70;90.30;;;;;;5025492;28;20522;-73
2022/05/20 08:15:22;;;;;;;14.90;5.10;;;24.60;90.60;;;;;;5002713;28;20033;-74
2022/05/20 08:17:48;;;;;;;9.50;3.88;;;24.60;90.50;;;;;;5006104;28;20026;-73
2022/05/20 08:20:25;;;;;;;7.28;4.80;;;24.30;90.60;;;;;;5006402;28;20518;-74
2022/05/20 08:22:53;;;;;;;13.73;4.47;;;24.30;92.00;;;;;;5015302;28;20096;-74
2022/05/20 08:25:19;;;;;;;11.88;3.85;;;24.40;91.20;;;;;;4993107;28;20044;-73
2022/05/20 08:27:46;;;;;;;13.00;4.15;;;24.20;91.50;;;;;;5000557;28;20037;-74
2022/05/20 08:30:25;;;;;;;9.18;4.75;;;24.20;91.40;;;;;;5000817;28;20030;-73
2022/05/20 08:32:51;;;;;;;8.65;4.60;;;24.50;92.70;;;;;;4992297;28;20046;-73
2022/05/20 08:35:18;;;;;;;16.02;4.85;;;23.40;91.90;;;;;;4986545;28;20081;-73
2022/05/20 08:37:46;;;;;;;14.13;5.40;;;23.70;92.20;;;;;;4998173;28;20385;-73
2022/05/20 08:40:16;;;;;;;9.15;4.70;;;24.20;91.70;;;;;;5002402;28;20384;-73
2022/05/20 08:42:43;;;;;;;9.82;4.55;;;24.20;92.00;;;;;;5014324;28;20056;-73
2022/05/20 08:45:12;;;;;;;11.00;4.75;;;24.10;92.20;;;;;;5000338;28;20034;-74
2022/05/20 08:47:43;;;;;;;8.35;5.15;;;23.60;91.90;;;;;;4992670;28;20073;-73
2022/05/20 08:50:14;;;;;;;24.90;5.00;;;23.80;92.10;;;;;;5001397;28;20135;-73
2022/05/20 08:52:42;;;;;;;9.13;5.20;;;24.10;91.60;;;;;;5010761;28;20044;-73
2022/05/20 08:55:08;;;;;;;9.73;4.70;;;24.30;91.20;;;;;;4991046;28;20041;-73
2022/05/20 08:57:34;;;;;;;11.90;4.13;;;24.30;91.30;;;;;;4986207;28;21011;-73
2022/05/20 09:00:01;;;;;;;18.40;5.95;;;24.40;91.70;;;;;;4997740;28;20129;-74
2022/05/20 09:02:27;;;;;;;14.52;5.15;;;24.60;91.40;;;;;;5005902;28;20121;-74
2022/05/20 09:04:53;;;;;;;8.60;4.68;;;24.90;91.50;;;;;;4985986;28;20046;-74
2022/05/20 09:07:20;;;;;;;9.68;4.82;;;24.80;91.00;;;;;;4997154;28;20088;-73
2022/05/20 09:09:51;;;;;;;12.85;5.13;;;25.10;90.90;;;;;;5010007;28;20381;-74
2022/05/20 09:12:38;;;;;;;11.63;4.60;;;25.20;90.60;;;;;;5007758;28;20037;-74
2022/05/20 09:18:05;;;;;;;7.13;4.90;;;25.20;91.10;;;;;;4992477;28;20037;-73
2022/05/20 09:20:31;;;;;;;11.50;4.90;;;25.20;91.20;;;;;;5014707;28;20033;-73
2022/05/20 09:23:05;;;;;;;15.35;5.00;;;25.40;90.60;;;;;;5010009;28;20038;-73
2022/05/20 09:25:33;;;;;;;8.35;4.93;;;25.20;90.60;;;;;;5003563;28;20387;-73
2022/05/20 09:28:36;;;;;;;8.43;4.85;;;25.10;91.00;;;;;;5008893;28;20060;-72
2022/05/20 09:31:24;;;;;;;7.70;4.88;;;25.90;90.80;;;;;;4996016;28;20041;-72
2022/05/20 09:34:19;;;;;;;8.90;4.85;;;25.90;89.80;;;;;;4997265;28;20130;-74
2022/05/20 09:37:16;;;;;;;7.32;4.45;;;25.90;90.30;;;;;;4996236;28;20025;-73
2022/05/20 09:39:44;;;;;;;8.95;4.50;;;26.00;90.00;;;;;;5003495;28;20025;-73
2022/05/20 09:42:22;;;;;;;9.45;4.72;;;25.90;89.70;;;;;;5013541;28;20464;-73
2022/05/20 09:44:50;;;;;;;7.65;4.20;;;26.00;90.10;;;;;;5008897;28;20026;-74
2022/05/20 09:47:32;;;;;;;10.02;5.15;;;25.90;89.50;;;;;;5008988;28;20495;-73
2022/05/20 09:49:59;;;;;;;6.32;4.20;;;26.10;90.30;;;;;;5011925;28;20030;-73
2022/05/20 09:52:49;;;;;;;7.57;4.00;;;26.60;88.60;;;;;;5027639;28;20021;-74
2022/05/20 09:55:25;;;;;;;9.13;4.40;;;27.00;88.60;;;;;;5002711;28;20022;-73
2022/05/20 09:57:55;;;;;;;6.88;3.78;;;27.10;88.00;;;;;;4988584;28;20039;-73
2022/05/20 10:00:20;;;;;;;14.50;5.00;;;26.90;87.40;;;;;;5005363;28;20041;-73
2022/05/20 10:03:10;;;;;;;6.32;4.18;;;26.30;88.50;;;;;;5006267;28;20515;-74
2022/05/20 10:05:50;;;;;;;11.30;4.00;;;26.30;89.80;;;;;;4996668;28;20042;-74
2022/05/20 10:08:53;;;;;;;11.38;3.92;;;26.40;90.10;;;;;;4989234;28;20038;-74
2022/05/20 10:11:38;;;;;;;10.25;4.18;;;27.10;89.20;;;;;;5022613;28;20496;-73
2022/05/20 10:14:37;;;;;;;10.77;4.00;;;26.80;89.20;;;;;;5027439;28;20033;-73
2022/05/20 10:17:34;;;;;;;9.02;3.95;;;27.00;89.00;;;;;;5027428;28;20105;-74
2022/05/20 10:20:25;;;;;;;8.13;4.05;;;27.10;89.30;;;;;;5035061;28;20041;-74
2022/05/20 10:22:53;;;;;;;9.70;4.05;;;27.10;88.40;;;;;;5019672;28;20088;-73
2022/05/20 10:25:49;;;;;;;5.82;3.20;;;27.30;88.20;;;;;;4988360;28;20597;-73
2022/05/20 10:34:16;;;;;;;15.13;4.43;;;27.10;87.10;;;;;;4995954;28;20041;-74
2022/05/20 10:37:13;;;;;;;32.42;5.75;;;27.50;89.10;;;;;;4998938;28;20038;-74
2022/05/20 10:39:55;;;;;;;10.15;4.28;;;28.10;89.20;;;;;;5012430;28;20044;-73
2022/05/20 10:42:21;;;;;;;9.20;4.30;;;28.10;87.30;;;;;;5027126;28;20041;-73
2022/05/20 10:51:09;;;;;;;7.22;3.90;;;28.10;86.90;;;;;;5016935;28;20534;-72
2022/05/20 10:53:54;;;;;;;9.25;4.38;;;28.10;87.10;;;;;;5013203;28;20017;-73
2022/05/20 10:56:48;;;;;;;7.82;3.60;;;28.00;86.50;;;;;;5007516;28;20416;-72
2022/05/20 10:59:27;;;;;;;8.50;4.00;;;28.30;88.40;;;;;;5007969;28;20026;-71
2022/05/20 11:02:04;;;;;;;8.88;3.72;;;28.20;86.20;;;;;;5022267;28;20029;-72
2022/05/20 11:04:35;;;;;;;12.88;4.00;;;28.20;85.80;;;;;;5000872;28;20037;-72
2022/05/20 11:07:23;;;;;;;7.47;3.03;;;27.70;86.50;;;;;;4997034;28;20034;-73
2022/05/20 11:10:16;;;;;;;18.95;3.88;;;28.10;86.80;;;;;;5012012;28;20204;-73
2022/05/20 11:13:16;;;;;;;10.53;3.63;;;28.10;86.90;;;;;;4992081;28;20084;-73
2022/05/20 11:15:57;;;;;;;8.85;3.67;;;28.40;86.40;;;;;;5006123;28;20507;-73
2022/05/20 11:18:44;;;;;;;4.82;3.58;;;28.30;85.80;;;;;;5007018;28;20609;-72
2022/05/20 11:21:39;;;;;;;11.75;3.88;;;28.40;86.90;;;;;;5006732;28;20034;-73
2022/05/20 11:24:40;;;;;;;11.32;3.83;;;28.50;86.30;;;;;;4991761;28;20129;-73
2022/05/20 11:27:31;;;;;;;6.15;3.25;;;28.30;86.30;;;;;;5003827;28;20022;-73
2022/05/20 11:30:00;;;;;;;5.32;3.20;;;28.60;85.60;;;;;;4999472;28;20474;-73
2022/05/20 11:32:45;;;;;;;9.18;3.00;;;29.00;85.60;;;;;;4996631;28;20042;-73
2022/05/20 11:35:29;;;;;;;8.02;3.58;;;28.50;85.30;;;;;;5005843;28;20546;-73
2022/05/20 11:38:01;;;;;;;8.30;3.55;;;28.40;85.20;;;;;;5006460;28;20109;-73
2022/05/20 11:40:41;;;;;;;9.25;3.75;;;28.50;85.30;;;;;;5007939;28;20144;-73
2022/05/20 11:43:32;;;;;;;5.90;3.40;;;28.40;85.50;;;;;;4999998;28;20049;-73
2022/05/20 11:46:08;;;;;;;8.55;3.63;;;28.40;85.10;;;;;;4986027;28;20026;-73
2022/05/20 11:48:40;;;;;;;11.57;3.45;;;28.50;84.50;;;;;;4986393;28;20117;-73
2022/05/20 11:51:14;;;;;;;9.50;4.07;;;28.50;84.50;;;;;;5017670;28;20519;-73
2022/05/20 11:54:06;;;;;;;7.20;4.07;;;28.50;84.80;;;;;;5007589;28;20031;-73
2022/05/20 11:57:15;;;;;;;7.75;3.58;;;28.80;85.70;;;;;;4986786;28;20110;-74
2022/05/20 11:59:50;;;;;;;6.05;3.05;;;29.10;86.00;;;;;;5017108;28;20126;-73
2022/05/20 12:02:18;;;;;;;9.25;4.07;;;29.30;84.50;;;;;;4994036;28;20053;-73
2022/05/20 12:04:47;;;;;;;9.05;3.10;;;29.50;84.20;;;;;;4993864;28;20058;-73
2022/05/20 12:07:16;;;;;;;13.27;3.80;;;29.50;84.20;;;;;;4995943;28;20496;-73
2022/05/20 12:09:50;;;;;;;7.28;3.55;;;29.40;84.30;;;;;;5004826;28;20091;-73
2022/05/20 12:12:33;;;;;;;6.88;3.38;;;29.30;84.50;;;;;;5005356;28;20555;-73
2022/05/20 12:15:08;;;;;;;9.93;3.42;;;29.30;84.40;;;;;;5025392;28;20053;-73
2022/05/20 12:17:33;;;;;;;6.82;3.33;;;29.20;84.50;;;;;;5018150;28;20034;-73
2022/05/20 12:25:57;;;;;;;8.05;3.65;;;29.30;84.50;;;;;;4990849;28;20072;-73
2022/05/20 12:28:23;;;;;;;6.53;3.08;;;29.10;84.40;;;;;;4993852;28;20062;-73
2022/05/20 12:31:19;;;;;;;10.20;3.25;;;29.10;84.70;;;;;;4998456;28;20061;-73
2022/05/20 12:34:00;;;;;;;7.93;3.72;;;29.20;84.30;;;;;;4996241;28;20045;-73
2022/05/20 12:36:28;;;;;;;6.03;3.20;;;29.20;84.60;;;;;;4987213;28;20026;-73
2022/05/20 12:39:09;;;;;;;9.57;3.55;;;29.60;83.90;;;;;;4989213;28;20034;-73
2022/05/20 12:41:50;;;;;;;11.32;4.35;;;29.30;84.30;;;;;;5000154;28;20757;-73
2022/05/20 12:44:15;;;;;;;10.18;3.83;;;29.30;84.50;;;;;;4993784;28;20081;-73
2022/05/20 12:46:57;;;;;;;12.30;3.90;;;29.00;84.80;;;;;;4996458;28;20061;-73
2022/05/20 12:49:25;;;;;;;9.07;3.33;;;29.30;85.00;;;;;;4990680;28;20034;-73
2022/05/20 12:51:52;;;;;;;6.57;3.30;;;29.30;84.20;;;;;;5025075;28;20033;-73
2022/05/20 12:54:21;;;;;;;13.05;4.28;;;29.40;84.10;;;;;;5009941;28;20093;-73
2022/05/20 12:56:53;;;;;;;10.40;4.00;;;29.40;84.10;;;;;;4993506;28;20049;-72
2022/05/20 12:59:21;;;;;;;8.57;4.03;;;29.40;83.60;;;;;;4995789;28;20034;-73
2022/05/20 13:01:58;;;;;;;11.10;4.13;;;29.00;83.50;;;;;;4996895;28;20105;-73
2022/05/20 13:04:33;;;;;;;8.93;3.88;;;29.00;84.20;;;;;;5001659;28;20404;-73
2022/05/20 13:07:01;;;;;;;9.63;3.80;;;29.20;83.80;;;;;;4990158;28;20034;-73
2022/05/20 13:09:39;;;;;;;8.52;3.97;;;29.00;83.40;;;;;;5005976;28;20053;-73
2022/05/20 13:12:08;;;;;;;7.60;3.45;;;28.90;84.10;;;;;;5028810;28;20970;-73
2022/05/20 13:14:36;;;;;;;7.30;3.33;;;29.00;83.40;;;;;;5017179;28;20034;-73
2022/05/20 13:17:04;;;;;;;5.25;3.50;;;29.00;84.10;;;;;;5009085;28;20108;-73
2022/05/20 13:19:48;;;;;;;10.05;3.67;;;29.00;84.50;;;;;;5007458;28;20037;-73
2022/05/20 13:22:23;;;;;;;8.70;3.55;;;29.00;83.70;;;;;;5006157;28;20159;-73
2022/05/20 13:25:06;;;;;;;12.48;4.18;;;28.90;83.70;;;;;;4991233;28;20042;-75
2022/05/20 13:27:32;;;;;;;8.55;3.65;;;28.50;83.70;;;;;;4992371;28;20041;-75
2022/05/20 13:30:11;;;;;;;7.60;3.67;;;28.90;84.20;;;;;;4998832;28;20022;-72
2022/05/20 13:32:37;;;;;;;9.98;4.20;;;29.10;84.10;;;;;;5008291;28;20124;-75
2022/05/20 13:35:05;;;;;;;7.65;3.55;;;29.10;83.80;;;;;;5007919;28;20181;-76
2022/05/20 13:37:41;;;;;;;9.13;4.18;;;29.00;84.30;;;;;;4989341;28;20037;-75
2022/05/20 13:40:19;;;;;;;10.30;4.15;;;29.00;84.10;;;;;;5004316;28;20068;-74
2022/05/20 13:42:55;;;;;;;9.55;4.53;;;29.20;83.70;;;;;;5028034;28;20057;-74
2022/05/20 13:51:06;;;;;;;11.65;3.83;;;28.80;83.70;;;;;;4993209;28;20073;-73
2022/05/20 13:53:34;;;;;;;15.15;3.97;;;28.90;83.20;;;;;;4989466;28;20462;-73
2022/05/20 13:56:00;;;;;;;13.40;4.38;;;29.00;83.40;;;;;;4992361;28;20667;-73
2022/05/20 13:58:28;;;;;;;9.77;4.50;;;29.10;83.60;;;;;;5000878;28;20022;-72
2022/05/20 14:00:58;;;;;;;9.32;4.10;;;29.10;83.50;;;;;;5016424;28;20029;-72